sensor_id;sensor_type;location;lat;lon;timestamp;temperature;humidity
68274;SHT30;55104;47.356;19.448;2022-10-17T00:02:50;9.99;85.91
68274;SHT30;55104;47.356;19.448;2022-10-17T00:05:52;9.97;85.88
68274;SHT30;55104;47.356;19.448;2022-10-17T00:08:54;9.95;86.30
68274;SHT30;55104;47.356;19.448;2022-10-17T00:11:56;9.93;86.13
68274;SHT30;55104;47.356;19.448;2022-10-17T00:14:58;9.94;85.96
68274;SHT30;55104;47.356;19.448;2022-10-17T00:18:00;9.97;85.93
68274;SHT30;55104;47.356;19.448;2022-10-17T00:21:02;9.94;86.02
68274;SHT30;55104;47.356;19.448;2022-10-17T00:24:04;9.93;86.20
68274;SHT30;55104;47.356;19.448;2022-10-17T00:27:06;9.90;86.43
68274;SHT30;55104;47.356;19.448;2022-10-17T00:30:11;9.87;86.33
68274;SHT30;55104;47.356;19.448;2022-10-17T00:33:13;9.85;86.21
68274;SHT30;55104;47.356;19.448;2022-10-17T00:36:22;9.85;86.14
68274;SHT30;55104;47.356;19.448;2022-10-17T00:39:24;9.87;86.03
68274;SHT30;55104;47.356;19.448;2022-10-17T00:42:26;9.81;85.85
68274;SHT30;55104;47.356;19.448;2022-10-17T00:45:30;9.81;85.97
68274;SHT30;55104;47.356;19.448;2022-10-17T00:48:31;9.78;85.92
68274;SHT30;55104;47.356;19.448;2022-10-17T00:51:44;9.83;85.96
68274;SHT30;55104;47.356;19.448;2022-10-17T00:55:13;9.81;85.68
68274;SHT30;55104;47.356;19.448;2022-10-17T00:58:17;9.81;85.42
68274;SHT30;55104;47.356;19.448;2022-10-17T01:01:19;9.85;85.72
68274;SHT30;55104;47.356;19.448;2022-10-17T01:04:21;9.80;85.80
68274;SHT30;55104;47.356;19.448;2022-10-17T01:07:24;9.78;85.82
68274;SHT30;55104;47.356;19.448;2022-10-17T01:11:20;9.76;85.68
68274;SHT30;55104;47.356;19.448;2022-10-17T01:14:27;9.80;85.68
68274;SHT30;55104;47.356;19.448;2022-10-17T01:24:47;9.87;85.19
68274;SHT30;55104;47.356;19.448;2022-10-17T01:31:06;9.90;85.24
68274;SHT30;55104;47.356;19.448;2022-10-17T01:34:21;9.97;84.94
68274;SHT30;55104;47.356;19.448;2022-10-17T01:40:38;9.94;84.95
68274;SHT30;55104;47.356;19.448;2022-10-17T01:43:54;9.85;84.99
68274;SHT30;55104;47.356;19.448;2022-10-17T01:47:04;9.84;85.65
68274;SHT30;55104;47.356;19.448;2022-10-17T01:50:16;9.83;85.54
68274;SHT30;55104;47.356;19.448;2022-10-17T01:53:32;9.83;85.40
68274;SHT30;55104;47.356;19.448;2022-10-17T01:56:36;9.80;85.87
68274;SHT30;55104;47.356;19.448;2022-10-17T01:59:43;9.77;86.07
68274;SHT30;55104;47.356;19.448;2022-10-17T02:02:48;9.74;86.02
68274;SHT30;55104;47.356;19.448;2022-10-17T02:05:54;9.77;86.34
68274;SHT30;55104;47.356;19.448;2022-10-17T02:08:56;9.88;86.14
68274;SHT30;55104;47.356;19.448;2022-10-17T02:18:50;9.95;85.41
68274;SHT30;55104;47.356;19.448;2022-10-17T02:31:46;9.90;85.92
68274;SHT30;55104;47.356;19.448;2022-10-17T02:34:54;9.90;86.14
68274;SHT30;55104;47.356;19.448;2022-10-17T02:37:58;9.95;85.72
68274;SHT30;55104;47.356;19.448;2022-10-17T02:41:03;9.97;85.80
68274;SHT30;55104;47.356;19.448;2022-10-17T02:44:06;9.98;85.59
68274;SHT30;55104;47.356;19.448;2022-10-17T02:47:25;10.05;85.49
68274;SHT30;55104;47.356;19.448;2022-10-17T02:57:11;9.78;86.05
68274;SHT30;55104;47.356;19.448;2022-10-17T03:00:18;9.78;86.57
68274;SHT30;55104;47.356;19.448;2022-10-17T03:03:28;9.85;86.08
68274;SHT30;55104;47.356;19.448;2022-10-17T03:06:34;9.94;85.78
68274;SHT30;55104;47.356;19.448;2022-10-17T03:09:36;9.93;85.89
68274;SHT30;55104;47.356;19.448;2022-10-17T03:12:38;9.90;85.83
68274;SHT30;55104;47.356;19.448;2022-10-17T03:15:42;9.87;85.89
68274;SHT30;55104;47.356;19.448;2022-10-17T03:18:44;9.87;85.88
68274;SHT30;55104;47.356;19.448;2022-10-17T03:21:50;9.87;85.84
68274;SHT30;55104;47.356;19.448;2022-10-17T03:24:52;9.87;85.77
68274;SHT30;55104;47.356;19.448;2022-10-17T03:27:57;9.85;85.80
68274;SHT30;55104;47.356;19.448;2022-10-17T03:31:12;9.77;86.09
68274;SHT30;55104;47.356;19.448;2022-10-17T03:34:15;9.71;86.26
68274;SHT30;55104;47.356;19.448;2022-10-17T03:37:19;9.64;86.54
68274;SHT30;55104;47.356;19.448;2022-10-17T03:40:21;9.69;86.31
68274;SHT30;55104;47.356;19.448;2022-10-17T03:43:23;9.64;86.75
68274;SHT30;55104;47.356;19.448;2022-10-17T03:46:25;9.77;86.25
68274;SHT30;55104;47.356;19.448;2022-10-17T03:49:29;9.76;86.20
68274;SHT30;55104;47.356;19.448;2022-10-17T03:52:31;9.74;86.45
68274;SHT30;55104;47.356;19.448;2022-10-17T03:55:34;9.71;86.43
68274;SHT30;55104;47.356;19.448;2022-10-17T03:58:36;9.64;86.88
68274;SHT30;55104;47.356;19.448;2022-10-17T04:01:39;9.60;87.04
68274;SHT30;55104;47.356;19.448;2022-10-17T04:04:41;9.58;87.15
68274;SHT30;55104;47.356;19.448;2022-10-17T04:07:43;9.60;87.28
68274;SHT30;55104;47.356;19.448;2022-10-17T04:10:46;9.57;87.23
68274;SHT30;55104;47.356;19.448;2022-10-17T04:13:53;9.54;87.38
68274;SHT30;55104;47.356;19.448;2022-10-17T04:16:56;9.50;87.36
68274;SHT30;55104;47.356;19.448;2022-10-17T04:19:59;9.57;87.21
68274;SHT30;55104;47.356;19.448;2022-10-17T04:23:01;9.50;87.33
68274;SHT30;55104;47.356;19.448;2022-10-17T04:26:05;9.44;87.55
68274;SHT30;55104;47.356;19.448;2022-10-17T04:29:07;9.39;87.76
68274;SHT30;55104;47.356;19.448;2022-10-17T04:32:09;9.29;88.04
68274;SHT30;55104;47.356;19.448;2022-10-17T04:35:16;9.29;88.10
68274;SHT30;55104;47.356;19.448;2022-10-17T04:38:24;9.32;87.84
68274;SHT30;55104;47.356;19.448;2022-10-17T04:41:29;9.32;87.87
68274;SHT30;55104;47.356;19.448;2022-10-17T04:44:31;9.42;87.62
68274;SHT30;55104;47.356;19.448;2022-10-17T04:47:35;9.42;87.51
68274;SHT30;55104;47.356;19.448;2022-10-17T04:50:37;9.38;87.77
68274;SHT30;55104;47.356;19.448;2022-10-17T04:53:59;9.35;87.69
68274;SHT30;55104;47.356;19.448;2022-10-17T04:57:01;9.30;87.89
68274;SHT30;55104;47.356;19.448;2022-10-17T05:00:04;9.28;87.86
68274;SHT30;55104;47.356;19.448;2022-10-17T05:03:27;9.19;88.09
68274;SHT30;55104;47.356;19.448;2022-10-17T05:06:29;9.19;87.99
68274;SHT30;55104;47.356;19.448;2022-10-17T05:09:51;9.12;88.22
68274;SHT30;55104;47.356;19.448;2022-10-17T05:12:53;9.11;88.59
68274;SHT30;55104;47.356;19.448;2022-10-17T05:16:00;9.14;88.63
68274;SHT30;55104;47.356;19.448;2022-10-17T05:19:02;9.12;88.56
68274;SHT30;55104;47.356;19.448;2022-10-17T05:22:10;9.18;88.10
68274;SHT30;55104;47.356;19.448;2022-10-17T05:25:13;9.22;88.07
68274;SHT30;55104;47.356;19.448;2022-10-17T05:28:15;9.22;88.10
68274;SHT30;55104;47.356;19.448;2022-10-17T05:31:17;9.26;87.85
68274;SHT30;55104;47.356;19.448;2022-10-17T05:34:19;9.36;87.63
68274;SHT30;55104;47.356;19.448;2022-10-17T05:37:21;9.42;87.35
68274;SHT30;55104;47.356;19.448;2022-10-17T05:40:26;9.54;86.96
68274;SHT30;55104;47.356;19.448;2022-10-17T05:43:29;9.67;86.40
68274;SHT30;55104;47.356;19.448;2022-10-17T05:46:31;9.87;85.63
68274;SHT30;55104;47.356;19.448;2022-10-17T05:49:33;9.94;85.43
68274;SHT30;55104;47.356;19.448;2022-10-17T05:52:53;10.02;85.46
68274;SHT30;55104;47.356;19.448;2022-10-17T05:55:58;10.11;85.16
68274;SHT30;55104;47.356;19.448;2022-10-17T05:59:01;10.18;85.38
68274;SHT30;55104;47.356;19.448;2022-10-17T06:02:23;10.28;84.75
68274;SHT30;55104;47.356;19.448;2022-10-17T06:05:25;10.42;84.26
68274;SHT30;55104;47.356;19.448;2022-10-17T06:08:27;10.49;84.15
68274;SHT30;55104;47.356;19.448;2022-10-17T06:11:29;10.61;83.88
68274;SHT30;55104;47.356;19.448;2022-10-17T06:14:33;10.67;83.91
68274;SHT30;55104;47.356;19.448;2022-10-17T06:17:37;10.87;83.05
68274;SHT30;55104;47.356;19.448;2022-10-17T06:20:39;11.05;82.14
68274;SHT30;55104;47.356;19.448;2022-10-17T06:23:48;11.05;82.32
68274;SHT30;55104;47.356;19.448;2022-10-17T06:26:55;11.21;81.92
68274;SHT30;55104;47.356;19.448;2022-10-17T06:29:58;11.35;81.05
68274;SHT30;55104;47.356;19.448;2022-10-17T06:33:04;11.46;81.27
68274;SHT30;55104;47.356;19.448;2022-10-17T06:36:07;11.56;80.45
68274;SHT30;55104;47.356;19.448;2022-10-17T06:39:11;11.78;79.66
68274;SHT30;55104;47.356;19.448;2022-10-17T06:42:23;11.91;79.02
68274;SHT30;55104;47.356;19.448;2022-10-17T06:45:42;12.01;79.25
68274;SHT30;55104;47.356;19.448;2022-10-17T06:49:04;12.22;78.50
68274;SHT30;55104;47.356;19.448;2022-10-17T06:52:16;12.29;77.02
68274;SHT30;55104;47.356;19.448;2022-10-17T06:55:44;12.41;77.04
68274;SHT30;55104;47.356;19.448;2022-10-17T06:58:56;12.49;76.91
68274;SHT30;55104;47.356;19.448;2022-10-17T07:02:09;12.69;75.68
68274;SHT30;55104;47.356;19.448;2022-10-17T07:05:12;12.73;75.21
68274;SHT30;55104;47.356;19.448;2022-10-17T07:08:14;12.80;76.10
68274;SHT30;55104;47.356;19.448;2022-10-17T07:11:19;12.87;75.95
68274;SHT30;55104;47.356;19.448;2022-10-17T07:14:25;13.03;74.40
68274;SHT30;55104;47.356;19.448;2022-10-17T07:17:33;13.21;72.95
68274;SHT30;55104;47.356;19.448;2022-10-17T07:20:36;13.29;73.90
68274;SHT30;55104;47.356;19.448;2022-10-17T07:23:38;13.43;74.00
68274;SHT30;55104;47.356;19.448;2022-10-17T07:26:40;13.52;72.49
68274;SHT30;55104;47.356;19.448;2022-10-17T07:29:42;13.58;73.26
68274;SHT30;55104;47.356;19.448;2022-10-17T07:33:05;13.70;72.75
68274;SHT30;55104;47.356;19.448;2022-10-17T07:36:08;13.86;73.37
68274;SHT30;55104;47.356;19.448;2022-10-17T07:39:10;13.97;71.71
68274;SHT30;55104;47.356;19.448;2022-10-17T07:42:12;14.13;70.19
68274;SHT30;55104;47.356;19.448;2022-10-17T07:45:15;14.15;69.99
68274;SHT30;55104;47.356;19.448;2022-10-17T07:48:19;14.26;70.70
68274;SHT30;55104;47.356;19.448;2022-10-17T07:51:25;14.42;70.27
68274;SHT30;55104;47.356;19.448;2022-10-17T07:54:28;14.65;68.46
68274;SHT30;55104;47.356;19.448;2022-10-17T07:57:30;14.72;69.12
68274;SHT30;55104;47.356;19.448;2022-10-17T08:00:32;14.83;69.66
68274;SHT30;55104;47.356;19.448;2022-10-17T08:03:35;14.98;68.61
68274;SHT30;55104;47.356;19.448;2022-10-17T08:06:37;15.10;67.56
68274;SHT30;55104;47.356;19.448;2022-10-17T08:09:39;15.28;67.67
68274;SHT30;55104;47.356;19.448;2022-10-17T08:12:42;15.44;67.08
68274;SHT30;55104;47.356;19.448;2022-10-17T08:15:44;15.52;66.02
68274;SHT30;55104;47.356;19.448;2022-10-17T08:18:48;15.62;66.56
68274;SHT30;55104;47.356;19.448;2022-10-17T08:21:50;15.83;65.42
68274;SHT30;55104;47.356;19.448;2022-10-17T08:24:53;16.00;66.45
68274;SHT30;55104;47.356;19.448;2022-10-17T08:27:54;16.16;64.95
68274;SHT30;55104;47.356;19.448;2022-10-17T08:31:08;16.38;63.24
68274;SHT30;55104;47.356;19.448;2022-10-17T08:34:10;16.44;64.07
68274;SHT30;55104;47.356;19.448;2022-10-17T08:37:13;16.45;63.77
68274;SHT30;55104;47.356;19.448;2022-10-17T08:40:24;16.59;63.73
68274;SHT30;55104;47.356;19.448;2022-10-17T08:44:40;16.65;62.54
68274;SHT30;55104;47.356;19.448;2022-10-17T08:47:12;16.77;61.27
68274;SHT30;55104;47.356;19.448;2022-10-17T08:50:24;16.93;62.24
68274;SHT30;55104;47.356;19.448;2022-10-17T08:53:37;17.07;62.37
68274;SHT30;55104;47.356;19.448;2022-10-17T08:56:45;17.11;60.86
68274;SHT30;55104;47.356;19.448;2022-10-17T08:59:52;17.34;61.57
68274;SHT30;55104;47.356;19.448;2022-10-17T09:03:05;17.52;60.27
68274;SHT30;55104;47.356;19.448;2022-10-17T09:13:15;18.01;57.48
68274;SHT30;55104;47.356;19.448;2022-10-17T09:19:36;18.27;56.82
68274;SHT30;55104;47.356;19.448;2022-10-17T09:26:01;18.66;56.15
68274;SHT30;55104;47.356;19.448;2022-10-17T09:29:30;18.79;56.49
68274;SHT30;55104;47.356;19.448;2022-10-17T09:32:37;18.83;54.70
68274;SHT30;55104;47.356;19.448;2022-10-17T09:35:40;18.96;54.55
68274;SHT30;55104;47.356;19.448;2022-10-17T09:38:49;19.24;55.74
68274;SHT30;55104;47.356;19.448;2022-10-17T09:41:54;19.44;55.43
68274;SHT30;55104;47.356;19.448;2022-10-17T09:48:25;19.86;52.60
68274;SHT30;55104;47.356;19.448;2022-10-17T09:51:29;20.02;51.05
68274;SHT30;55104;47.356;19.448;2022-10-17T09:54:58;20.06;51.30
68274;SHT30;55104;47.356;19.448;2022-10-17T09:58:04;20.13;51.20
68274;SHT30;55104;47.356;19.448;2022-10-17T10:01:16;20.34;49.85
68274;SHT30;55104;47.356;19.448;2022-10-17T10:04:24;20.45;49.20
68274;SHT30;55104;47.356;19.448;2022-10-17T10:07:37;20.64;49.30
68274;SHT30;55104;47.356;19.448;2022-10-17T10:10:39;20.74;48.49
68274;SHT30;55104;47.356;19.448;2022-10-17T10:13:46;20.86;47.99
68274;SHT30;55104;47.356;19.448;2022-10-17T10:16:50;21.09;47.10
68274;SHT30;55104;47.356;19.448;2022-10-17T10:19:54;21.07;46.89
68274;SHT30;55104;47.356;19.448;2022-10-17T10:23:17;21.18;46.70
68274;SHT30;55104;47.356;19.448;2022-10-17T10:29:41;21.39;47.55
68274;SHT30;55104;47.356;19.448;2022-10-17T10:32:46;21.43;46.78
68274;SHT30;55104;47.356;19.448;2022-10-17T10:35:58;21.55;47.17
68274;SHT30;55104;47.356;19.448;2022-10-17T10:39:02;21.67;45.63
68274;SHT30;55104;47.356;19.448;2022-10-17T10:54:09;21.91;44.88
68274;SHT30;55104;47.356;19.448;2022-10-17T10:57:15;21.95;46.02
68274;SHT30;55104;47.356;19.448;2022-10-17T11:00:24;22.10;44.24
68274;SHT30;55104;47.356;19.448;2022-10-17T11:03:36;21.88;43.75
68274;SHT30;55104;47.356;19.448;2022-10-17T11:06:40;21.89;43.69
68274;SHT30;55104;47.356;19.448;2022-10-17T11:09:57;22.02;42.43
68274;SHT30;55104;47.356;19.448;2022-10-17T11:13:10;22.06;43.15
68274;SHT30;55104;47.356;19.448;2022-10-17T11:16:34;22.16;41.61
68274;SHT30;55104;47.356;19.448;2022-10-17T11:23:19;22.54;42.88
68274;SHT30;55104;47.356;19.448;2022-10-17T11:26:32;22.40;42.41
68274;SHT30;55104;47.356;19.448;2022-10-17T11:29:37;22.29;42.45
68274;SHT30;55104;47.356;19.448;2022-10-17T11:32:45;22.23;42.66
68274;SHT30;55104;47.356;19.448;2022-10-17T11:35:51;22.13;42.49
68274;SHT30;55104;47.356;19.448;2022-10-17T11:39:06;21.92;42.21
68274;SHT30;55104;47.356;19.448;2022-10-17T11:42:16;21.84;42.92
68274;SHT30;55104;47.356;19.448;2022-10-17T11:45:21;21.69;43.23
68274;SHT30;55104;47.356;19.448;2022-10-17T11:48:29;21.75;43.52
68274;SHT30;55104;47.356;19.448;2022-10-17T11:51:41;22.06;43.05
68274;SHT30;55104;47.356;19.448;2022-10-17T11:55:09;22.14;42.24
68274;SHT30;55104;47.356;19.448;2022-10-17T12:01:44;22.28;42.26
68274;SHT30;55104;47.356;19.448;2022-10-17T12:04:58;22.40;42.46
68274;SHT30;55104;47.356;19.448;2022-10-17T12:08:12;22.26;41.73
68274;SHT30;55104;47.356;19.448;2022-10-17T12:11:44;22.23;42.77
68274;SHT30;55104;47.356;19.448;2022-10-17T12:14:51;22.23;42.44
68274;SHT30;55104;47.356;19.448;2022-10-17T12:21:00;22.26;43.30
68274;SHT30;55104;47.356;19.448;2022-10-17T12:24:02;22.39;43.65
68274;SHT30;55104;47.356;19.448;2022-10-17T12:31:02;22.20;42.98
68274;SHT30;55104;47.356;19.448;2022-10-17T12:34:14;22.01;43.28
68274;SHT30;55104;47.356;19.448;2022-10-17T12:40:53;22.09;43.10
68274;SHT30;55104;47.356;19.448;2022-10-17T12:43:56;22.12;43.07
68274;SHT30;55104;47.356;19.448;2022-10-17T12:47:27;22.06;42.90
68274;SHT30;55104;47.356;19.448;2022-10-17T12:54:26;22.02;43.10
68274;SHT30;55104;47.356;19.448;2022-10-17T12:58:02;21.98;42.90
68274;SHT30;55104;47.356;19.448;2022-10-17T13:01:17;21.94;43.02
68274;SHT30;55104;47.356;19.448;2022-10-17T13:04:25;21.91;43.28
68274;SHT30;55104;47.356;19.448;2022-10-17T13:07:29;21.91;43.55
68274;SHT30;55104;47.356;19.448;2022-10-17T13:10:34;21.81;43.47
68274;SHT30;55104;47.356;19.448;2022-10-17T13:13:49;21.78;42.79
68274;SHT30;55104;47.356;19.448;2022-10-17T13:17:03;21.75;42.19
68274;SHT30;55104;47.356;19.448;2022-10-17T13:20:18;21.69;42.70
68274;SHT30;55104;47.356;19.448;2022-10-17T13:23:34;21.64;42.90
68274;SHT30;55104;47.356;19.448;2022-10-17T13:26:36;21.57;43.33
68274;SHT30;55104;47.356;19.448;2022-10-17T13:29:43;21.48;44.12
68274;SHT30;55104;47.356;19.448;2022-10-17T13:32:45;21.40;43.69
68274;SHT30;55104;47.356;19.448;2022-10-17T13:35:47;21.16;44.44
68274;SHT30;55104;47.356;19.448;2022-10-17T13:39:08;21.18;44.35
68274;SHT30;55104;47.356;19.448;2022-10-17T13:42:23;21.00;45.12
68274;SHT30;55104;47.356;19.448;2022-10-17T13:45:33;20.89;44.83
68274;SHT30;55104;47.356;19.448;2022-10-17T13:48:36;20.74;45.73
68274;SHT30;55104;47.356;19.448;2022-10-17T13:51:42;20.67;46.47
68274;SHT30;55104;47.356;19.448;2022-10-17T13:54:47;20.59;46.95
68274;SHT30;55104;47.356;19.448;2022-10-17T13:57:51;20.47;46.88
68274;SHT30;55104;47.356;19.448;2022-10-17T14:00:53;20.40;48.25
68274;SHT30;55104;47.356;19.448;2022-10-17T14:03:56;20.36;47.52
68274;SHT30;55104;47.356;19.448;2022-10-17T14:07:27;20.30;47.54
68274;SHT30;55104;47.356;19.448;2022-10-17T14:10:52;20.33;48.64
68274;SHT30;55104;47.356;19.448;2022-10-17T14:13:55;20.34;47.00
68274;SHT30;55104;47.356;19.448;2022-10-17T14:16:57;20.30;46.86
68274;SHT30;55104;47.356;19.448;2022-10-17T14:20:01;20.16;47.25
68274;SHT30;55104;47.356;19.448;2022-10-17T14:29:51;19.87;49.78
68274;SHT30;55104;47.356;19.448;2022-10-17T14:32:56;19.74;50.69
68274;SHT30;55104;47.356;19.448;2022-10-17T14:36:00;19.72;50.28
68274;SHT30;55104;47.356;19.448;2022-10-17T14:39:05;19.65;50.82
68274;SHT30;55104;47.356;19.448;2022-10-17T14:42:19;19.51;51.81
68274;SHT30;55104;47.356;19.448;2022-10-17T14:45:33;19.44;52.80
68274;SHT30;55104;47.356;19.448;2022-10-17T14:48:36;19.38;53.21
68274;SHT30;55104;47.356;19.448;2022-10-17T14:51:38;19.34;53.09
68274;SHT30;55104;47.356;19.448;2022-10-17T14:54:59;19.21;53.50
68274;SHT30;55104;47.356;19.448;2022-10-17T14:58:24;19.16;54.08
68274;SHT30;55104;47.356;19.448;2022-10-17T15:01:26;19.09;54.49
68274;SHT30;55104;47.356;19.448;2022-10-17T15:04:28;18.95;54.76
68274;SHT30;55104;47.356;19.448;2022-10-17T15:07:30;18.89;54.93
68274;SHT30;55104;47.356;19.448;2022-10-17T15:10:34;18.72;55.73
68274;SHT30;55104;47.356;19.448;2022-10-17T15:13:37;18.65;55.67
68274;SHT30;55104;47.356;19.448;2022-10-17T15:16:46;18.59;56.00
68274;SHT30;55104;47.356;19.448;2022-10-17T15:19:47;18.47;56.74
68274;SHT30;55104;47.356;19.448;2022-10-17T15:22:58;18.33;57.10
68274;SHT30;55104;47.356;19.448;2022-10-17T15:26:00;18.21;57.55
68274;SHT30;55104;47.356;19.448;2022-10-17T15:29:02;18.06;58.24
68274;SHT30;55104;47.356;19.448;2022-10-17T15:32:04;17.92;58.57
68274;SHT30;55104;47.356;19.448;2022-10-17T15:35:07;17.76;59.34
68274;SHT30;55104;47.356;19.448;2022-10-17T15:38:12;17.59;59.91
68274;SHT30;55104;47.356;19.448;2022-10-17T15:41:18;17.42;60.09
68274;SHT30;55104;47.356;19.448;2022-10-17T15:44:20;17.31;60.67
68274;SHT30;55104;47.356;19.448;2022-10-17T15:47:30;17.13;61.39
68274;SHT30;55104;47.356;19.448;2022-10-17T15:50:36;16.99;62.03
68274;SHT30;55104;47.356;19.448;2022-10-17T15:53:38;16.89;62.34
68274;SHT30;55104;47.356;19.448;2022-10-17T15:56:41;16.79;63.32
68274;SHT30;55104;47.356;19.448;2022-10-17T15:59:44;16.62;64.52
68274;SHT30;55104;47.356;19.448;2022-10-17T16:02:48;16.42;65.67
68274;SHT30;55104;47.356;19.448;2022-10-17T16:05:50;16.25;66.14
68274;SHT30;55104;47.356;19.448;2022-10-17T16:08:52;15.99;67.44
68274;SHT30;55104;47.356;19.448;2022-10-17T16:11:54;15.76;68.54
68274;SHT30;55104;47.356;19.448;2022-10-17T16:14:56;15.66;68.82
68274;SHT30;55104;47.356;19.448;2022-10-17T16:17:58;15.46;69.34
68274;SHT30;55104;47.356;19.448;2022-10-17T16:21:05;15.35;70.38
68274;SHT30;55104;47.356;19.448;2022-10-17T16:24:10;15.20;70.56
68274;SHT30;55104;47.356;19.448;2022-10-17T16:27:12;15.06;70.94
68274;SHT30;55104;47.356;19.448;2022-10-17T16:30:15;14.94;70.84
68274;SHT30;55104;47.356;19.448;2022-10-17T16:33:18;14.83;71.50
68274;SHT30;55104;47.356;19.448;2022-10-17T16:36:20;14.70;71.67
68274;SHT30;55104;47.356;19.448;2022-10-17T16:39:22;14.66;72.36
68274;SHT30;55104;47.356;19.448;2022-10-17T16:42:24;14.51;72.71
68274;SHT30;55104;47.356;19.448;2022-10-17T16:45:26;14.39;73.20
68274;SHT30;55104;47.356;19.448;2022-10-17T16:48:28;14.32;73.76
68274;SHT30;55104;47.356;19.448;2022-10-17T16:51:30;14.21;73.41
68274;SHT30;55104;47.356;19.448;2022-10-17T16:54:34;14.15;73.53
68274;SHT30;55104;47.356;19.448;2022-10-17T16:57:36;14.08;73.23
68274;SHT30;55104;47.356;19.448;2022-10-17T17:00:38;14.04;73.26
68274;SHT30;55104;47.356;19.448;2022-10-17T17:03:42;13.96;73.71
68274;SHT30;55104;47.356;19.448;2022-10-17T17:06:44;13.84;74.01
68274;SHT30;55104;47.356;19.448;2022-10-17T17:09:51;13.73;74.27
68274;SHT30;55104;47.356;19.448;2022-10-17T17:12:54;13.67;75.00
68274;SHT30;55104;47.356;19.448;2022-10-17T17:16:08;13.62;75.04
68274;SHT30;55104;47.356;19.448;2022-10-17T17:19:12;13.52;75.37
68274;SHT30;55104;47.356;19.448;2022-10-17T17:22:14;13.45;75.52
68274;SHT30;55104;47.356;19.448;2022-10-17T17:25:16;13.39;75.76
68274;SHT30;55104;47.356;19.448;2022-10-17T17:28:18;13.32;75.63
68274;SHT30;55104;47.356;19.448;2022-10-17T17:31:23;13.26;75.87
68274;SHT30;55104;47.356;19.448;2022-10-17T17:34:25;13.18;76.10
68274;SHT30;55104;47.356;19.448;2022-10-17T17:37:27;13.16;76.55
68274;SHT30;55104;47.356;19.448;2022-10-17T17:40:32;13.08;76.98
68274;SHT30;55104;47.356;19.448;2022-10-17T17:43:35;13.00;77.63
68274;SHT30;55104;47.356;19.448;2022-10-17T17:46:37;12.94;77.72
68274;SHT30;55104;47.356;19.448;2022-10-17T17:49:39;12.88;77.75
68274;SHT30;55104;47.356;19.448;2022-10-17T17:52:41;12.87;77.55
68274;SHT30;55104;47.356;19.448;2022-10-17T17:55:46;12.76;77.68
68274;SHT30;55104;47.356;19.448;2022-10-17T17:58:53;12.75;77.68
68274;SHT30;55104;47.356;19.448;2022-10-17T18:01:55;12.67;77.94
68274;SHT30;55104;47.356;19.448;2022-10-17T18:04:57;12.61;77.98
68274;SHT30;55104;47.356;19.448;2022-10-17T18:07:59;12.57;78.34
68274;SHT30;55104;47.356;19.448;2022-10-17T18:11:02;12.53;77.97
68274;SHT30;55104;47.356;19.448;2022-10-17T18:14:09;12.46;78.07
68274;SHT30;55104;47.356;19.448;2022-10-17T18:17:12;12.45;78.37
68274;SHT30;55104;47.356;19.448;2022-10-17T18:20:14;12.41;79.01
68274;SHT30;55104;47.356;19.448;2022-10-17T18:23:16;12.36;78.98
68274;SHT30;55104;47.356;19.448;2022-10-17T18:26:19;12.29;79.18
68274;SHT30;55104;47.356;19.448;2022-10-17T18:29:21;12.26;79.73
68274;SHT30;55104;47.356;19.448;2022-10-17T18:32:23;12.24;80.04
68274;SHT30;55104;47.356;19.448;2022-10-17T18:35:25;12.25;79.73
68274;SHT30;55104;47.356;19.448;2022-10-17T18:38:27;12.18;79.63
68274;SHT30;55104;47.356;19.448;2022-10-17T18:41:29;12.14;79.88
68274;SHT30;55104;47.356;19.448;2022-10-17T18:44:31;12.10;80.07
68274;SHT30;55104;47.356;19.448;2022-10-17T18:47:33;12.11;80.51
68274;SHT30;55104;47.356;19.448;2022-10-17T18:50:37;12.08;80.71
68274;SHT30;55104;47.356;19.448;2022-10-17T18:53:40;12.07;80.30
68274;SHT30;55104;47.356;19.448;2022-10-17T18:56:43;12.07;80.21
68274;SHT30;55104;47.356;19.448;2022-10-17T18:59:45;12.02;79.92
68274;SHT30;55104;47.356;19.448;2022-10-17T19:02:47;11.97;80.11
68274;SHT30;55104;47.356;19.448;2022-10-17T19:05:49;11.93;80.20
68274;SHT30;55104;47.356;19.448;2022-10-17T19:08:51;11.90;80.26
68274;SHT30;55104;47.356;19.448;2022-10-17T19:11:54;11.86;79.92
68274;SHT30;55104;47.356;19.448;2022-10-17T19:14:57;11.83;80.20
68274;SHT30;55104;47.356;19.448;2022-10-17T19:17:59;11.78;80.29
68274;SHT30;55104;47.356;19.448;2022-10-17T19:21:05;11.74;80.16
68274;SHT30;55104;47.356;19.448;2022-10-17T19:24:12;11.71;80.11
68274;SHT30;55104;47.356;19.448;2022-10-17T19:27:14;11.69;80.41
68274;SHT30;55104;47.356;19.448;2022-10-17T19:30:16;11.70;80.68
68274;SHT30;55104;47.356;19.448;2022-10-17T19:33:18;11.66;81.34
68274;SHT30;55104;47.356;19.448;2022-10-17T19:36:22;11.62;81.15
68274;SHT30;55104;47.356;19.448;2022-10-17T19:39:31;11.58;81.32
68274;SHT30;55104;47.356;19.448;2022-10-17T19:42:33;11.56;81.26
68274;SHT30;55104;47.356;19.448;2022-10-17T19:45:36;11.56;81.17
68274;SHT30;55104;47.356;19.448;2022-10-17T19:48:38;11.52;81.21
68274;SHT30;55104;47.356;19.448;2022-10-17T19:51:40;11.47;81.43
68274;SHT30;55104;47.356;19.448;2022-10-17T19:54:42;11.43;81.65
68274;SHT30;55104;47.356;19.448;2022-10-17T19:57:44;11.35;82.08
68274;SHT30;55104;47.356;19.448;2022-10-17T20:00:52;11.29;82.45
68274;SHT30;55104;47.356;19.448;2022-10-17T20:03:55;11.23;82.41
68274;SHT30;55104;47.356;19.448;2022-10-17T20:06:57;11.23;82.19
68274;SHT30;55104;47.356;19.448;2022-10-17T20:10:00;11.26;82.58
68274;SHT30;55104;47.356;19.448;2022-10-17T20:13:03;11.19;83.16
68274;SHT30;55104;47.356;19.448;2022-10-17T20:16:06;11.12;83.14
68274;SHT30;55104;47.356;19.448;2022-10-17T20:19:10;11.11;82.93
68274;SHT30;55104;47.356;19.448;2022-10-17T20:22:12;11.10;83.08
68274;SHT30;55104;47.356;19.448;2022-10-17T20:25:14;11.08;83.10
68274;SHT30;55104;47.356;19.448;2022-10-17T20:28:20;11.05;82.83
68274;SHT30;55104;47.356;19.448;2022-10-17T20:31:41;10.98;82.75
68274;SHT30;55104;47.356;19.448;2022-10-17T20:34:43;10.95;83.20
68274;SHT30;55104;47.356;19.448;2022-10-17T20:37:45;10.95;83.31
68274;SHT30;55104;47.356;19.448;2022-10-17T20:40:47;10.90;83.53
68274;SHT30;55104;47.356;19.448;2022-10-17T20:43:53;10.90;84.06
68274;SHT30;55104;47.356;19.448;2022-10-17T20:46:55;10.78;83.71
68274;SHT30;55104;47.356;19.448;2022-10-17T20:50:03;10.78;84.16
68274;SHT30;55104;47.356;19.448;2022-10-17T20:53:05;10.73;83.99
68274;SHT30;55104;47.356;19.448;2022-10-17T20:56:30;10.74;84.24
68274;SHT30;55104;47.356;19.448;2022-10-17T20:59:33;10.71;84.36
68274;SHT30;55104;47.356;19.448;2022-10-17T21:02:38;10.70;84.33